Time;durP1;ratioP1;P1;durP2;ratioP2;P2;SDS_P1;SDS_P2;PMS_P1;PMS_P2;Temp;Humidity;BMP_temperature;BMP_pressure;BME280_temperature;BME280_humidity;BME280_pressure;Samples;Min_cycle;Max_cycle;Signal;HPM_P1;HPM_P2
2022/05/13 00:01:22;;;;;;;5.70;3.07;;;15.00;99.90;;;;;;4954458;28;20208;-75
2022/05/13 00:03:49;;;;;;;5.03;2.80;;;15.00;99.90;;;;;;4958245;28;20194;-75
2022/05/13 00:06:16;;;;;;;3.20;2.43;;;15.00;99.90;;;;;;4958992;28;20224;-76
2022/05/13 00:08:42;;;;;;;5.53;3.13;;;14.80;99.90;;;;;;4954363;28;20233;-75
2022/05/13 00:11:10;;;;;;;4.07;2.93;;;14.80;99.90;;;;;;4955225;28;20237;-75
2022/05/13 00:13:37;;;;;;;3.30;2.80;;;14.70;99.90;;;;;;4960733;28;20197;-75
2022/05/13 00:16:05;;;;;;;7.80;2.90;;;14.60;99.90;;;;;;4955023;28;20201;-76
2022/05/13 00:18:32;;;;;;;5.37;2.93;;;14.50;99.90;;;;;;4959131;28;20316;-76
2022/05/13 00:21:00;;;;;;;6.57;2.73;;;14.40;99.90;;;;;;4956359;28;20673;-75
2022/05/13 00:23:26;;;;;;;3.67;2.70;;;14.40;99.90;;;;;;4962890;28;20677;-75
2022/05/13 00:25:53;;;;;;;5.93;3.10;;;14.30;99.90;;;;;;4959292;28;20216;-75
2022/05/13 00:28:20;;;;;;;5.37;3.03;;;14.30;99.90;;;;;;4956761;28;20253;-77
2022/05/13 00:30:48;;;;;;;4.80;2.43;;;14.20;99.90;;;;;;4942087;28;20579;-75
2022/05/13 00:33:16;;;;;;;8.37;3.87;;;14.10;99.90;;;;;;4943156;28;20202;-75
2022/05/13 00:35:44;;;;;;;4.73;2.93;;;14.10;99.90;;;;;;4942961;28;20216;-75
2022/05/13 00:38:10;;;;;;;3.77;2.80;;;14.10;99.90;;;;;;4942011;28;20247;-77
2022/05/13 00:40:38;;;;;;;4.30;3.10;;;14.00;99.90;;;;;;4941302;28;20210;-75
2022/05/13 00:43:08;;;;;;;7.23;2.60;;;13.90;99.90;;;;;;4942005;28;20213;-75
2022/05/13 00:45:35;;;;;;;3.17;2.70;;;13.80;99.90;;;;;;4943045;28;20209;-78
2022/05/13 00:48:03;;;;;;;4.17;3.00;;;13.70;99.90;;;;;;4941681;28;20652;-75
2022/05/13 00:50:35;;;;;;;4.33;3.07;;;13.70;99.90;;;;;;4944343;28;20210;-75
2022/05/13 00:53:02;;;;;;;3.83;2.57;;;13.60;99.90;;;;;;4942013;28;20201;-77
2022/05/13 00:55:36;;;;;;;5.30;2.70;;;13.50;99.90;;;;;;4956366;28;20248;-77
2022/05/13 00:58:06;;;;;;;3.77;2.80;;;13.50;99.90;;;;;;4942405;28;20224;-75
2022/05/13 01:00:32;;;;;;;4.53;3.00;;;13.40;99.90;;;;;;4941953;28;20198;-75
2022/05/13 01:03:00;;;;;;;5.33;3.30;;;13.40;99.90;;;;;;4941161;28;20755;-77
2022/05/13 01:05:28;;;;;;;5.13;2.90;;;13.30;99.90;;;;;;4943738;28;20195;-76
2022/05/13 01:07:54;;;;;;;5.40;3.30;;;13.20;99.90;;;;;;4940557;28;20261;-76
2022/05/13 01:10:25;;;;;;;4.93;3.37;;;13.20;99.90;;;;;;4945059;28;20255;-79
2022/05/13 01:12:58;;;;;;;4.63;3.10;;;13.30;99.90;;;;;;4948023;28;20206;-77
2022/05/13 01:15:31;;;;;;;4.87;3.27;;;13.40;99.90;;;;;;4954437;28;20636;-76
2022/05/13 01:18:06;;;;;;;5.67;3.27;;;13.50;99.90;;;;;;4947107;28;20226;-78
2022/05/13 01:20:50;;;;;;;8.30;3.50;;;13.60;99.90;;;;;;4946708;28;20727;-75
2022/05/13 01:23:23;;;;;;;5.03;3.33;;;13.60;99.90;;;;;;4942683;28;20200;-76
2022/05/13 01:25:53;;;;;;;4.80;3.63;;;13.60;99.90;;;;;;4939383;28;20207;-77
2022/05/13 01:28:32;;;;;;;5.43;3.60;;;13.60;99.90;;;;;;4938908;28;20226;-75
2022/05/13 01:31:01;;;;;;;7.87;3.90;;;13.60;99.90;;;;;;4941547;28;20206;-77
2022/05/13 01:33:29;;;;;;;4.83;3.50;;;13.50;99.90;;;;;;4939955;28;20689;-77
2022/05/13 01:35:58;;;;;;;5.53;3.87;;;13.50;99.90;;;;;;4939776;28;20624;-76
2022/05/13 01:38:28;;;;;;;5.57;3.60;;;13.30;99.90;;;;;;4943754;28;20222;-75
2022/05/13 01:40:55;;;;;;;4.73;3.60;;;13.20;99.90;;;;;;4940035;28;20276;-77
2022/05/13 01:43:24;;;;;;;7.60;3.87;;;13.20;99.90;;;;;;4940750;28;20206;-79
2022/05/13 01:45:51;;;;;;;8.17;3.80;;;13.10;99.90;;;;;;4940507;28;20257;-76
2022/05/13 01:48:18;;;;;;;5.97;3.87;;;13.10;99.90;;;;;;4940851;28;20218;-76
2022/05/13 01:50:45;;;;;;;5.03;3.53;;;13.00;99.90;;;;;;4941111;28;20246;-76
2022/05/13 01:53:13;;;;;;;8.53;3.73;;;12.90;99.90;;;;;;4941246;28;20202;-76
2022/05/13 01:55:42;;;;;;;6.90;3.77;;;12.90;99.90;;;;;;4941875;28;20206;-76
2022/05/13 01:58:15;;;;;;;7.30;3.47;;;13.00;99.90;;;;;;4941706;28;20221;-77
2022/05/13 02:00:43;;;;;;;5.60;3.80;;;13.00;99.90;;;;;;4944279;28;20207;-76
2022/05/13 02:05:56;;;;;;;5.17;3.30;;;12.70;99.90;;;;;;4940151;28;20684;-75
2022/05/13 02:08:23;;;;;;;5.73;3.70;;;12.80;99.90;;;;;;4944206;28;20221;-78
2022/05/13 02:10:50;;;;;;;6.00;3.73;;;12.70;99.90;;;;;;4940159;28;20594;-77
2022/05/13 02:13:17;;;;;;;8.17;3.70;;;12.70;99.90;;;;;;4944646;28;20662;-76
2022/05/13 02:15:44;;;;;;;5.97;3.67;;;12.70;99.90;;;;;;4941242;28;20213;-77
2022/05/13 02:18:11;;;;;;;4.83;3.90;;;12.60;99.90;;;;;;4944169;28;20215;-78
2022/05/13 02:20:40;;;;;;;7.20;3.60;;;12.60;99.90;;;;;;4940657;28;20202;-76
2022/05/13 02:23:07;;;;;;;5.63;3.43;;;12.70;99.90;;;;;;4941689;28;20204;-76
2022/05/13 02:25:34;;;;;;;6.13;3.67;;;12.60;99.90;;;;;;4946249;28;20698;-78
2022/05/13 02:28:02;;;;;;;7.50;3.80;;;12.60;99.90;;;;;;4939945;28;20635;-75
2022/05/13 02:30:29;;;;;;;5.57;3.60;;;12.70;99.90;;;;;;4941916;28;20226;-75
2022/05/13 02:32:56;;;;;;;6.63;3.90;;;12.70;99.90;;;;;;4939670;28;20211;-76
2022/05/13 02:35:23;;;;;;;7.20;3.97;;;12.70;99.90;;;;;;4944345;28;20198;-76
2022/05/13 02:37:50;;;;;;;5.20;3.60;;;12.70;99.90;;;;;;4940679;28;20227;-77
2022/05/13 02:40:18;;;;;;;4.87;3.30;;;12.70;99.90;;;;;;4942563;28;20202;-75
2022/05/13 02:42:45;;;;;;;5.53;3.60;;;12.70;99.90;;;;;;4938544;28;20205;-77
2022/05/13 02:45:12;;;;;;;7.80;3.60;;;12.50;99.90;;;;;;4941080;28;20677;-77
2022/05/13 02:47:40;;;;;;;5.30;3.33;;;12.30;99.90;;;;;;4940711;28;20264;-77
2022/05/13 02:50:18;;;;;;;4.83;3.80;;;12.30;99.90;;;;;;4939480;28;20221;-78
2022/05/13 02:52:45;;;;;;;5.80;3.77;;;12.30;99.90;;;;;;4939560;28;20194;-77
2022/05/13 02:55:12;;;;;;;6.80;4.53;;;12.40;99.90;;;;;;4943329;28;20572;-76
2022/05/13 02:57:39;;;;;;;6.77;3.80;;;12.40;99.90;;;;;;4938360;28;20220;-77
2022/05/13 03:00:08;;;;;;;5.20;3.70;;;12.30;99.90;;;;;;4942310;28;20211;-77
2022/05/13 03:02:36;;;;;;;7.37;4.23;;;12.20;99.90;;;;;;4940209;28;20723;-78
2022/05/13 03:05:03;;;;;;;6.83;4.03;;;12.20;99.90;;;;;;4938218;28;20199;-78
2022/05/13 03:07:30;;;;;;;6.90;4.03;;;12.10;99.90;;;;;;4941703;28;20719;-78
2022/05/13 03:09:57;;;;;;;8.73;4.10;;;12.10;99.90;;;;;;4938655;28;20749;-78
2022/05/13 03:12:24;;;;;;;7.07;3.90;;;12.10;99.90;;;;;;4941072;28;20196;-77
2022/05/13 03:14:50;;;;;;;5.83;3.63;;;12.00;99.90;;;;;;4940500;28;20204;-77
2022/05/13 03:17:17;;;;;;;6.07;3.87;;;11.90;99.90;;;;;;4938709;28;20201;-75
2022/05/13 03:19:44;;;;;;;6.57;3.90;;;11.80;99.90;;;;;;4935973;28;20196;-78
2022/05/13 03:22:11;;;;;;;8.83;4.13;;;11.70;99.90;;;;;;4942005;28;20202;-79
2022/05/13 03:24:38;;;;;;;8.17;4.00;;;11.90;99.90;;;;;;4937684;28;20210;-78
2022/05/13 03:27:05;;;;;;;5.80;3.93;;;11.90;99.90;;;;;;4940487;28;20201;-79
2022/05/13 03:29:31;;;;;;;5.77;4.03;;;11.90;99.90;;;;;;4937400;28;20384;-80
2022/05/13 03:31:58;;;;;;;8.53;4.13;;;11.90;99.90;;;;;;4938865;28;20203;-81
2022/05/13 03:34:26;;;;;;;7.30;4.40;;;11.90;99.90;;;;;;4937905;28;20720;-78
2022/05/13 03:36:54;;;;;;;8.77;4.30;;;11.80;99.90;;;;;;4939053;28;20198;-80
2022/05/13 03:39:21;;;;;;;8.40;4.27;;;11.80;99.90;;;;;;4939263;28;20691;-80
2022/05/13 03:41:47;;;;;;;8.93;4.37;;;11.80;99.90;;;;;;4938004;28;20679;-80
2022/05/13 03:44:14;;;;;;;10.33;4.27;;;11.70;99.90;;;;;;4940200;28;20198;-82
2022/05/13 03:46:41;;;;;;;9.50;4.10;;;11.90;99.90;;;;;;4940840;28;20200;-80
2022/05/13 03:49:08;;;;;;;6.00;3.80;;;11.90;99.90;;;;;;4938175;28;20599;-80
2022/05/13 03:51:35;;;;;;;5.23;3.80;;;11.90;99.90;;;;;;4938366;28;20205;-83
2022/05/13 03:54:01;;;;;;;6.53;4.10;;;11.80;99.90;;;;;;4938533;28;20691;-81
2022/05/13 03:56:30;;;;;;;8.43;4.00;;;11.70;99.90;;;;;;4938800;28;20287;-84
2022/05/13 03:58:56;;;;;;;6.60;3.53;;;11.70;99.90;;;;;;4941544;28;20508;-85
2022/05/13 04:01:23;;;;;;;8.17;4.00;;;11.80;99.90;;;;;;4942004;28;20621;-79
2022/05/13 04:03:50;;;;;;;7.63;3.70;;;12.00;99.90;;;;;;4938823;28;20208;-80
2022/05/13 04:09:30;;;;;;;6.67;3.60;;;12.20;99.90;;;;;;4924381;29;20229;-80
2022/05/13 04:17:34;;;;;;;6.93;3.50;;;12.80;99.90;;;;;;4939159;28;20244;-78
2022/05/13 04:20:02;;;;;;;7.00;3.30;;;12.80;99.90;;;;;;4937708;28;20201;-79
2022/05/13 04:22:30;;;;;;;9.60;3.57;;;12.90;99.90;;;;;;4941422;28;20205;-78
2022/05/13 04:24:56;;;;;;;5.87;3.40;;;13.00;99.90;;;;;;4942318;28;20277;-76
2022/05/13 04:27:23;;;;;;;5.83;3.00;;;13.10;99.90;;;;;;4944134;28;20229;-78
2022/05/13 04:29:52;;;;;;;5.90;3.40;;;13.00;99.90;;;;;;4941875;28;20223;-78
2022/05/13 04:32:18;;;;;;;6.27;3.23;;;12.80;99.90;;;;;;4945144;28;20202;-76
2022/05/13 04:34:45;;;;;;;5.37;2.97;;;12.80;99.90;;;;;;4951972;28;20211;-78
2022/05/13 04:37:12;;;;;;;6.20;3.27;;;12.70;99.90;;;;;;4950986;28;20205;-75
2022/05/13 04:39:38;;;;;;;6.33;3.27;;;12.60;99.90;;;;;;4951756;28;20206;-77
2022/05/13 04:44:51;;;;;;;6.00;3.70;;;12.90;99.90;;;;;;4947901;28;20344;-77
2022/05/13 04:50:21;;;;;;;5.97;3.73;;;13.00;99.90;;;;;;4945234;29;20218;-77
2022/05/13 04:52:48;;;;;;;6.77;4.00;;;13.00;99.90;;;;;;4944010;28;20258;-77
2022/05/13 04:55:14;;;;;;;5.83;3.47;;;13.10;99.90;;;;;;4944938;28;20207;-77
2022/05/13 04:57:41;;;;;;;5.73;3.40;;;13.30;99.90;;;;;;4948271;28;20223;-78
2022/05/13 05:00:08;;;;;;;7.93;3.70;;;13.40;99.90;;;;;;4949581;28;20206;-79
2022/05/13 05:02:35;;;;;;;6.03;3.20;;;13.40;99.90;;;;;;4940252;28;20404;-78
2022/05/13 05:05:02;;;;;;;4.90;3.40;;;13.50;99.90;;;;;;4947861;28;20202;-76
2022/05/13 05:07:29;;;;;;;4.83;3.10;;;13.60;99.90;;;;;;4943832;28;20219;-77
2022/05/13 05:09:55;;;;;;;5.33;2.80;;;13.70;99.90;;;;;;4939698;28;20226;-75
2022/05/13 05:12:22;;;;;;;5.40;2.70;;;13.90;99.90;;;;;;4940166;28;20676;-77
2022/05/13 05:14:49;;;;;;;3.23;2.57;;;14.10;99.90;;;;;;4952384;28;20779;-77
2022/05/13 05:17:15;;;;;;;6.60;2.90;;;14.40;99.90;;;;;;4948908;28;20197;-75
2022/05/13 05:19:42;;;;;;;4.77;2.70;;;14.50;99.90;;;;;;4957015;28;20204;-77
2022/05/13 05:22:08;;;;;;;4.37;2.90;;;14.60;99.90;;;;;;4956570;28;20205;-77
2022/05/13 05:24:35;;;;;;;3.87;2.30;;;14.80;99.90;;;;;;4956790;28;20206;-80
2022/05/13 05:27:02;;;;;;;6.23;2.30;;;14.90;99.90;;;;;;4958316;28;20205;-78
2022/05/13 05:29:28;;;;;;;5.67;2.53;;;14.80;99.90;;;;;;4958018;28;20240;-78
2022/05/13 05:31:55;;;;;;;5.67;2.70;;;14.80;99.90;;;;;;4960596;28;20206;-77
2022/05/13 05:34:22;;;;;;;5.17;2.50;;;14.80;99.90;;;;;;4950779;28;20222;-80
2022/05/13 05:36:48;;;;;;;6.43;2.13;;;14.70;99.90;;;;;;4953115;28;20612;-76
2022/05/13 05:39:17;;;;;;;7.83;2.70;;;14.80;99.90;;;;;;4941425;28;20222;-78
2022/05/13 05:41:43;;;;;;;7.63;2.77;;;14.90;99.90;;;;;;4945670;28;20568;-75
2022/05/13 05:44:10;;;;;;;6.53;2.90;;;14.90;99.90;;;;;;4956814;28;20255;-78
2022/05/13 05:46:36;;;;;;;3.63;2.27;;;15.10;99.90;;;;;;4948985;28;20601;-75
2022/05/13 05:49:04;;;;;;;7.80;2.50;;;15.30;99.90;;;;;;4952583;28;20225;-76
2022/05/13 05:51:31;;;;;;;6.67;2.30;;;15.30;99.90;;;;;;4948051;28;20293;-75
2022/05/13 05:59:28;;;;;;;10.77;2.73;;;15.50;99.90;;;;;;4941700;28;20670;-76
2022/05/13 06:01:55;;;;;;;12.50;2.53;;;15.70;99.90;;;;;;4944820;28;20198;-75
2022/05/13 06:04:22;;;;;;;5.10;2.17;;;15.70;99.90;;;;;;4947138;28;20198;-75
2022/05/13 06:06:49;;;;;;;4.23;2.13;;;15.70;99.90;;;;;;4934745;28;20230;-77
2022/05/13 06:09:17;;;;;;;5.37;2.23;;;15.70;99.90;;;;;;4950298;28;20219;-76
2022/05/13 06:11:43;;;;;;;5.20;2.30;;;15.70;99.90;;;;;;4948306;28;20223;-77
2022/05/13 06:14:10;;;;;;;6.23;2.37;;;15.70;99.90;;;;;;4947590;28;20554;-76
2022/05/13 06:16:37;;;;;;;5.53;2.27;;;15.70;99.90;;;;;;4944735;28;20202;-76
2022/05/13 06:19:04;;;;;;;4.30;2.13;;;15.60;99.90;;;;;;4951074;28;20222;-77
2022/05/13 06:21:33;;;;;;;3.50;1.97;;;15.80;99.90;;;;;;4950295;28;20198;-77
2022/05/13 06:24:00;;;;;;;4.50;2.20;;;16.20;99.90;;;;;;4949653;28;20217;-76
2022/05/13 06:26:27;;;;;;;5.43;2.03;;;16.40;99.90;;;;;;4948214;28;20670;-75
2022/05/13 06:28:54;;;;;;;5.37;2.10;;;16.30;99.90;;;;;;4953665;28;20254;-77
2022/05/13 06:31:21;;;;;;;6.70;2.00;;;16.20;99.90;;;;;;4953828;28;20249;-77
2022/05/13 06:33:48;;;;;;;4.13;1.70;;;16.50;99.90;;;;;;4940555;28;20678;-75
2022/05/13 06:36:14;;;;;;;3.03;1.67;;;17.10;99.90;;;;;;4939311;28;20195;-74
2022/05/13 06:38:41;;;;;;;3.43;1.47;;;17.50;99.90;;;;;;4938191;28;20218;-74
2022/05/13 06:41:08;;;;;;;2.93;1.80;;;17.90;99.90;;;;;;4940345;28;20206;-76
2022/05/13 06:43:35;;;;;;;6.03;1.83;;;18.00;99.90;;;;;;4938453;28;20202;-77
2022/05/13 06:46:02;;;;;;;6.17;1.70;;;18.30;99.90;;;;;;4936631;28;20672;-77
2022/05/13 06:48:29;;;;;;;3.43;1.57;;;18.40;99.90;;;;;;4938008;28;20224;-75
2022/05/13 06:50:56;;;;;;;4.57;1.50;;;18.40;99.90;;;;;;4938733;28;20258;-73
2022/05/13 06:53:23;;;;;;;5.80;1.47;;;18.40;99.90;;;;;;4937799;28;20194;-77
2022/05/13 06:55:50;;;;;;;2.40;1.40;;;18.10;99.90;;;;;;4940600;28;20202;-74
2022/05/13 06:58:16;;;;;;;3.50;1.70;;;18.00;99.90;;;;;;4936396;28;20412;-75
2022/05/13 07:00:44;;;;;;;4.30;1.47;;;18.10;99.90;;;;;;4939319;28;20202;-74
2022/05/13 07:03:13;;;;;;;5.37;1.70;;;18.60;99.90;;;;;;4945542;28;20608;-74
2022/05/13 07:05:40;;;;;;;4.57;1.23;;;19.00;99.90;;;;;;4942450;28;20285;-76
2022/05/13 07:08:07;;;;;;;5.00;1.27;;;19.30;99.90;;;;;;4939672;28;20230;-77
2022/05/13 07:10:34;;;;;;;5.07;1.30;;;19.30;99.90;;;;;;4939588;28;20636;-75
2022/05/13 07:13:04;;;;;;;5.37;1.30;;;19.20;99.90;;;;;;4939182;28;20214;-75
2022/05/13 07:15:31;;;;;;;3.13;1.00;;;19.40;99.90;;;;;;4942190;28;20199;-76
2022/05/13 07:17:58;;;;;;;1.37;1.00;;;19.40;99.90;;;;;;4939124;28;20222;-77
2022/05/13 07:20:27;;;;;;;2.87;1.10;;;18.90;99.90;;;;;;4941779;28;20198;-77
2022/05/13 07:22:55;;;;;;;1.90;0.90;;;18.80;99.90;;;;;;4941697;28;20234;-76
2022/05/13 07:25:23;;;;;;;2.27;1.00;;;18.60;99.90;;;;;;4941729;28;20201;-74
2022/05/13 07:27:50;;;;;;;4.07;1.30;;;18.40;99.90;;;;;;4935653;28;20219;-75
2022/05/13 07:30:16;;;;;;;4.27;1.37;;;18.60;99.90;;;;;;4940475;28;20222;-76
2022/05/13 07:32:44;;;;;;;2.83;1.20;;;18.50;99.90;;;;;;4938847;28;20194;-74
2022/05/13 07:35:10;;;;;;;6.37;1.40;;;18.30;99.90;;;;;;4943226;28;20194;-76
2022/05/13 07:37:37;;;;;;;3.97;1.10;;;18.30;99.90;;;;;;4935083;28;20266;-75
2022/05/13 07:42:51;;;;;;;4.97;1.20;;;17.90;99.90;;;;;;4943491;28;20206;-73
2022/05/13 07:45:17;;;;;;;3.00;1.20;;;18.10;99.90;;;;;;4936694;28;20202;-75
2022/05/13 07:47:44;;;;;;;3.60;1.40;;;18.20;99.90;;;;;;4938822;28;20226;-76
2022/05/13 07:50:14;;;;;;;5.33;1.60;;;18.50;99.90;;;;;;4943493;28;20218;-77
2022/05/13 07:52:41;;;;;;;2.20;1.20;;;18.40;99.90;;;;;;4942324;28;20198;-75
2022/05/13 07:55:10;;;;;;;2.53;1.40;;;18.20;99.90;;;;;;4943720;28;20257;-77
2022/05/13 07:57:40;;;;;;;4.27;1.40;;;18.10;99.90;;;;;;4934274;28;20222;-77
2022/05/13 08:00:29;;;;;;;2.33;1.30;;;18.20;99.90;;;;;;4954917;28;20216;-75
2022/05/13 08:02:58;;;;;;;2.20;1.30;;;18.20;99.90;;;;;;4942496;28;20580;-77
2022/05/13 08:05:28;;;;;;;6.27;1.50;;;18.30;99.90;;;;;;4941598;28;20191;-75
2022/05/13 08:08:08;;;;;;;3.10;1.23;;;18.60;99.90;;;;;;4937315;28;20222;-73
2022/05/13 08:10:38;;;;;;;4.70;1.20;;;18.60;99.90;;;;;;4937210;28;20222;-75
2022/05/13 08:13:05;;;;;;;4.20;1.27;;;18.40;99.90;;;;;;4940346;28;20202;-78
2022/05/13 08:15:32;;;;;;;2.80;1.30;;;18.50;99.90;;;;;;4943666;28;20195;-76
2022/05/13 08:17:59;;;;;;;4.10;1.10;;;18.40;99.90;;;;;;4939501;28;20222;-74
2022/05/13 08:20:27;;;;;;;3.57;1.37;;;18.40;99.90;;;;;;4941062;28;20213;-76
2022/05/13 08:22:54;;;;;;;4.00;1.33;;;18.50;99.90;;;;;;4939281;28;20261;-76
2022/05/13 08:25:21;;;;;;;3.80;1.10;;;18.60;99.90;;;;;;4941842;28;20206;-77
2022/05/13 08:27:48;;;;;;;3.13;1.03;;;18.70;99.90;;;;;;4943436;28;20218;-74
2022/05/13 08:30:15;;;;;;;2.07;1.10;;;19.00;99.90;;;;;;4939877;28;20203;-75
2022/05/13 08:32:42;;;;;;;3.50;1.20;;;19.10;99.90;;;;;;4944622;28;20191;-75
2022/05/13 08:35:11;;;;;;;2.93;1.10;;;19.30;99.90;;;;;;4945352;28;20198;-78
2022/05/13 08:37:47;;;;;;;1.73;1.10;;;19.40;99.90;;;;;;4950055;28;20246;-77
2022/05/13 08:40:28;;;;;;;3.13;1.20;;;19.40;99.90;;;;;;4954611;28;20571;-75
2022/05/13 08:42:55;;;;;;;2.87;1.13;;;19.20;99.90;;;;;;4947845;28;20410;-74
2022/05/13 08:45:22;;;;;;;3.17;1.50;;;19.30;99.90;;;;;;4951441;28;20257;-78
2022/05/13 08:47:51;;;;;;;2.17;1.00;;;19.40;99.90;;;;;;4939131;28;20729;-72
2022/05/13 08:50:29;;;;;;;1.63;1.10;;;19.60;99.90;;;;;;4946375;28;20309;-76
2022/05/13 08:53:16;;;;;;;3.10;1.10;;;19.10;99.90;;;;;;4943748;28;20209;-74
2022/05/13 08:55:46;;;;;;;2.30;1.20;;;18.90;99.90;;;;;;4942921;28;20206;-76
2022/05/13 08:58:22;;;;;;;5.33;2.00;;;19.10;99.90;;;;;;4940263;28;20214;-72
2022/05/13 09:00:53;;;;;;;5.07;1.30;;;18.90;99.90;;;;;;4935880;28;20199;-76
2022/05/13 09:03:40;;;;;;;4.63;1.43;;;19.00;99.90;;;;;;4944031;28;20270;-74
2022/05/13 09:06:25;;;;;;;4.00;1.33;;;19.50;99.90;;;;;;4945574;28;20198;-74
2022/05/13 09:08:53;;;;;;;2.27;1.37;;;19.90;99.90;;;;;;4941483;28;20657;-74
2022/05/13 09:11:30;;;;;;;1.90;1.03;;;19.90;99.90;;;;;;4943043;28;20218;-76
2022/05/13 09:14:15;;;;;;;4.73;1.90;;;20.00;99.90;;;;;;4940762;28;20199;-75
2022/05/13 09:16:42;;;;;;;3.03;1.30;;;19.70;99.90;;;;;;4943227;28;20578;-75
2022/05/13 09:19:18;;;;;;;2.60;1.20;;;19.30;99.90;;;;;;4941263;28;20706;-76
2022/05/13 09:21:44;;;;;;;2.73;1.20;;;19.20;99.90;;;;;;4940794;28;20734;-75
2022/05/13 09:24:11;;;;;;;2.03;1.20;;;19.20;99.90;;;;;;4943982;28;20201;-76
2022/05/13 09:26:38;;;;;;;1.83;1.20;;;19.30;99.90;;;;;;4945027;28;20592;-77
2022/05/13 09:29:12;;;;;;;3.20;1.40;;;19.20;99.90;;;;;;4940488;28;20229;-77
2022/05/13 09:31:44;;;;;;;2.17;1.30;;;19.20;99.90;;;;;;4943281;28;20300;-76
2022/05/13 09:34:35;;;;;;;3.17;1.40;;;19.50;99.90;;;;;;4945113;28;20278;-79
2022/05/13 09:37:08;;;;;;;3.00;1.33;;;20.00;99.90;;;;;;4943894;28;20186;-76
2022/05/13 09:39:43;;;;;;;6.30;1.30;;;20.50;99.90;;;;;;4946154;28;20194;-79
2022/05/13 09:42:20;;;;;;;4.10;1.40;;;20.40;99.90;;;;;;4940224;28;20198;-77
2022/05/13 09:44:47;;;;;;;2.50;1.20;;;20.40;99.90;;;;;;4941856;28;20206;-78
2022/05/13 09:47:24;;;;;;;3.97;1.30;;;20.50;99.90;;;;;;4939632;28;20207;-77
2022/05/13 09:50:49;;;;;;;3.07;1.40;;;20.40;99.90;;;;;;4943247;28;20746;-74
2022/05/13 09:53:22;;;;;;;6.37;1.50;;;20.30;99.90;;;;;;4940349;28;20202;-78
2022/05/13 09:55:51;;;;;;;2.17;1.37;;;20.50;99.90;;;;;;4952753;28;20194;-78
2022/05/13 09:58:22;;;;;;;3.07;1.40;;;20.70;99.90;;;;;;4942147;28;20230;-78
2022/05/13 10:01:13;;;;;;;3.50;1.33;;;20.80;99.90;;;;;;4941108;28;20199;-75
2022/05/13 10:03:41;;;;;;;3.10;1.60;;;20.90;99.90;;;;;;4941486;28;20670;-78
2022/05/13 10:06:08;;;;;;;2.33;1.33;;;20.50;99.90;;;;;;4944132;28;20281;-76
2022/05/13 10:13:57;;;;;;;3.60;1.60;;;20.40;99.90;;;;;;4944070;28;20466;-77
2022/05/13 10:14:39;;;;;;;3.47;1.50;;;21.00;99.90;;;;;;4938156;28;20217;-77
2022/05/13 10:17:25;;;;;;;3.90;1.63;;;21.50;99.90;;;;;;4938119;28;20201;-77
2022/05/13 10:20:02;;;;;;;2.90;1.10;;;21.70;99.90;;;;;;4943987;28;20202;-80
2022/05/13 10:22:51;;;;;;;3.65;1.30;;;21.40;99.90;;;;;;4947260;28;20237;-79
2022/05/13 10:25:25;;;;;;;2.03;1.23;;;21.00;99.90;;;;;;4938584;28;20686;-75
2022/05/13 10:28:11;;;;;;;3.05;1.35;;;21.00;99.90;;;;;;4936612;28;20226;-77
2022/05/13 10:30:59;;;;;;;2.33;1.50;;;21.30;99.90;;;;;;4939078;28;20203;-78
2022/05/13 10:33:38;;;;;;;6.85;2.20;;;21.20;99.90;;;;;;4939077;28;20198;-74
2022/05/13 10:36:16;;;;;;;3.38;1.63;;;21.00;99.90;;;;;;4941290;28;20201;-74
2022/05/13 10:39:08;;;;;;;10.68;1.90;;;20.90;99.90;;;;;;4935834;28;20214;-76
2022/05/13 10:41:45;;;;;;;5.70;1.80;;;21.10;99.90;;;;;;4939208;28;20206;-77
2022/05/13 10:44:32;;;;;;;3.83;1.33;;;21.40;99.90;;;;;;4946320;28;20433;-78
2022/05/13 10:47:04;;;;;;;2.70;1.30;;;21.60;99.90;;;;;;4940025;28;20699;-76
2022/05/13 10:49:40;;;;;;;1.90;1.30;;;21.50;99.90;;;;;;4937741;28;20217;-78
2022/05/13 10:52:27;;;;;;;2.63;1.50;;;20.90;99.90;;;;;;4943861;28;20226;-78
2022/05/13 10:55:11;;;;;;;2.97;1.33;;;20.50;99.90;;;;;;4942779;28;20246;-78
2022/05/13 10:58:02;;;;;;;3.63;1.70;;;20.50;99.90;;;;;;4935077;28;20250;-74
2022/05/13 11:00:36;;;;;;;3.65;1.42;;;20.60;99.90;;;;;;4940304;28;20674;-76
2022/05/13 11:03:25;;;;;;;2.53;1.40;;;20.80;99.90;;;;;;4944734;28;20209;-77
2022/05/13 11:06:22;;;;;;;4.03;1.17;;;21.10;99.90;;;;;;4945748;28;20261;-78
2022/05/13 11:09:02;;;;;;;3.55;1.45;;;21.30;99.90;;;;;;4935930;28;20635;-77
2022/05/13 11:11:39;;;;;;;3.65;1.27;;;21.40;99.90;;;;;;4942451;28;20233;-76
2022/05/13 11:14:15;;;;;;;3.90;1.30;;;21.40;99.90;;;;;;4938324;28;20693;-75
2022/05/13 11:16:41;;;;;;;4.63;1.45;;;21.50;99.90;;;;;;4934918;28;20200;-79
2022/05/13 11:19:29;;;;;;;2.33;1.42;;;21.50;99.90;;;;;;4940848;28;20718;-77
2022/05/13 11:22:17;;;;;;;2.85;1.33;;;21.30;99.90;;;;;;4943652;28;20638;-78
2022/05/13 11:28:04;;;;;;;2.77;1.60;;;20.70;99.90;;;;;;4939600;28;20233;-75
2022/05/13 11:30:57;;;;;;;3.00;1.50;;;21.10;99.90;;;;;;4946890;28;20198;-77
2022/05/13 11:33:42;;;;;;;3.90;1.45;;;21.60;99.90;;;;;;4920317;28;20199;-76
2022/05/13 11:36:20;;;;;;;2.70;1.58;;;21.80;99.90;;;;;;4941783;28;20690;-76
2022/05/13 11:38:52;;;;;;;3.20;1.40;;;21.80;99.90;;;;;;4938899;28;20580;-76
2022/05/13 11:41:22;;;;;;;1.55;1.10;;;21.80;99.90;;;;;;4944683;28;20197;-80
2022/05/13 11:44:10;;;;;;;5.43;1.27;;;22.20;99.90;;;;;;4941947;28;20206;-78
2022/05/13 11:47:04;;;;;;;3.08;1.17;;;22.30;99.90;;;;;;4943765;28;20213;-77
2022/05/13 11:49:35;;;;;;;2.45;1.08;;;22.50;99.90;;;;;;4940798;28;20202;-80
2022/05/13 11:52:14;;;;;;;3.20;1.30;;;22.70;99.90;;;;;;4939544;28;20236;-78
2022/05/13 11:54:42;;;;;;;4.78;1.33;;;22.90;99.90;;;;;;4941176;28;20194;-76
2022/05/13 11:57:23;;;;;;;2.63;1.10;;;23.00;99.90;;;;;;4937560;28;20199;-75
2022/05/13 12:00:14;;;;;;;1.60;1.00;;;23.20;99.90;;;;;;4939930;28;20198;-76
2022/05/13 12:03:00;;;;;;;4.72;1.20;;;23.00;99.90;;;;;;4935637;28;20199;-78
2022/05/13 12:05:31;;;;;;;3.65;1.10;;;22.90;99.90;;;;;;4944471;28;20738;-76
2022/05/13 12:08:01;;;;;;;2.28;1.00;;;22.90;99.90;;;;;;4936227;28;21009;-76
2022/05/13 12:10:45;;;;;;;1.55;1.00;;;23.10;99.90;;;;;;4942588;28;20193;-75
2022/05/13 12:13:15;;;;;;;3.70;1.25;;;23.40;99.90;;;;;;4948168;28;20213;-77
2022/05/13 12:16:08;;;;;;;2.78;1.20;;;23.10;99.90;;;;;;4942753;28;20195;-77
2022/05/13 12:18:54;;;;;;;2.40;1.00;;;22.80;99.90;;;;;;4932932;28;20228;-78
2022/05/13 12:21:47;;;;;;;3.47;1.38;;;22.70;99.90;;;;;;4951417;28;20636;-77
2022/05/13 12:24:14;;;;;;;2.70;1.27;;;23.00;99.90;;;;;;4942431;28;20213;-75
2022/05/13 12:26:53;;;;;;;2.05;1.00;;;23.40;99.90;;;;;;4938333;28;20199;-77
2022/05/13 12:29:43;;;;;;;2.25;1.13;;;23.80;99.90;;;;;;4943192;28;20314;-75
2022/05/13 12:32:35;;;;;;;3.25;1.00;;;24.30;99.90;;;;;;4944082;28;20301;-78
2022/05/13 12:37:56;;;;;;;1.30;0.90;;;24.60;98.20;;;;;;4940946;28;20598;-78
2022/05/13 12:40:22;;;;;;;4.90;1.00;;;24.60;98.60;;;;;;4945336;28;20210;-81
2022/05/13 12:42:54;;;;;;;3.03;1.10;;;24.80;98.80;;;;;;4943471;28;20643;-80
2022/05/13 12:45:42;;;;;;;4.07;1.13;;;25.00;98.50;;;;;;4948871;28;20253;-78
2022/05/13 12:48:08;;;;;;;1.83;0.80;;;24.80;98.70;;;;;;4943436;28;20226;-76
2022/05/13 12:51:07;;;;;;;5.40;1.00;;;24.10;98.00;;;;;;4942623;28;20214;-77
2022/05/13 12:53:50;;;;;;;1.70;0.80;;;24.00;98.40;;;;;;4938928;28;20214;-77
2022/05/13 12:56:23;;;;;;;1.48;0.90;;;24.00;97.80;;;;;;4939563;28;20203;-76
2022/05/13 12:59:16;;;;;;;3.08;0.80;;;24.00;98.00;;;;;;4939940;28;20222;-76
2022/05/13 13:01:48;;;;;;;2.13;0.90;;;24.20;98.20;;;;;;4941298;28;20195;-77
2022/05/13 13:04:19;;;;;;;1.88;1.00;;;24.40;97.30;;;;;;4944699;28;20206;-74
2022/05/13 13:06:48;;;;;;;3.72;1.00;;;24.60;98.30;;;;;;4940078;28;20195;-75
2022/05/13 13:09:20;;;;;;;3.08;0.93;;;24.60;98.20;;;;;;4946896;28;20298;-74
2022/05/13 13:12:02;;;;;;;2.63;1.10;;;24.90;97.60;;;;;;4942194;28;20218;-77
2022/05/13 13:15:00;;;;;;;4.95;0.82;;;25.00;97.70;;;;;;4944813;28;20201;-78
2022/05/13 13:17:45;;;;;;;2.08;0.88;;;25.20;97.70;;;;;;4938162;28;20698;-76
2022/05/13 13:20:15;;;;;;;1.77;1.00;;;25.00;97.50;;;;;;4946182;28;20197;-82
2022/05/13 13:22:48;;;;;;;1.77;0.75;;;24.90;97.80;;;;;;4943974;28;20203;-77
2022/05/13 13:25:20;;;;;;;3.15;0.75;;;24.70;97.40;;;;;;4940957;28;20685;-76
2022/05/13 13:27:48;;;;;;;3.67;0.80;;;24.60;97.60;;;;;;4944938;28;20675;-82
2022/05/13 13:30:21;;;;;;;3.90;1.00;;;24.80;97.60;;;;;;4938877;28;20202;-76
2022/05/13 13:32:49;;;;;;;3.58;0.75;;;25.00;97.60;;;;;;4942751;28;20222;-75
2022/05/13 13:35:26;;;;;;;3.72;1.08;;;25.30;97.00;;;;;;4944502;28;20226;-74
2022/05/13 13:37:53;;;;;;;1.88;0.80;;;25.10;96.50;;;;;;4943228;28;20273;-77
2022/05/13 13:40:26;;;;;;;1.75;0.73;;;25.30;96.10;;;;;;4940164;28;20206;-75
2022/05/13 13:42:53;;;;;;;2.25;1.23;;;25.40;95.80;;;;;;4944399;28;20213;-77